createdAt,value
2023-03-27T00:00:19.228Z,25.13
2023-03-27T00:00:49.331Z,25.13
2023-03-27T00:01:19.446Z,25.10
2023-03-27T00:01:49.588Z,25.14
2023-03-27T00:02:19.678Z,25.11
2023-03-27T00:02:49.745Z,25.10
2023-03-27T00:03:19.770Z,25.14
2023-03-27T00:03:50.000Z,25.10
2023-03-27T00:04:19.828Z,25.11
2023-03-27T00:04:49.775Z,25.10
2023-03-27T00:05:19.795Z,25.13
2023-03-27T00:05:49.822Z,25.10
2023-03-27T00:06:19.851Z,25.10
2023-03-27T00:06:49.876Z,25.13
2023-03-27T00:07:19.936Z,25.11
2023-03-27T00:07:49.965Z,25.11
2023-03-27T00:08:19.991Z,25.13
2023-03-27T00:08:50.016Z,25.13
2023-03-27T00:09:20.073Z,25.14
2023-03-27T00:09:50.096Z,25.10
2023-03-27T00:10:20.111Z,25.11
2023-03-27T00:10:50.134Z,25.11
2023-03-27T00:11:20.178Z,25.11
2023-03-27T00:11:50.255Z,25.14
2023-03-27T00:12:20.268Z,25.14
2023-03-27T00:12:50.301Z,25.11
2023-03-27T00:13:20.323Z,25.10
2023-03-27T00:13:51.305Z,25.11
2023-03-27T00:14:20.473Z,25.11
2023-03-27T00:14:50.497Z,25.11
2023-03-27T00:15:20.515Z,25.11
2023-03-27T00:15:50.538Z,25.09
2023-03-27T00:16:20.588Z,25.11
2023-03-27T00:16:50.610Z,25.10
2023-03-27T00:17:20.634Z,25.13
2023-03-27T00:17:50.652Z,25.10
2023-03-27T00:18:20.721Z,25.09
2023-03-27T00:18:50.726Z,25.11
2023-03-27T00:19:20.760Z,25.10
2023-03-27T00:19:50.784Z,25.11
2023-03-27T00:20:20.805Z,25.10
2023-03-27T00:20:50.841Z,25.11
2023-03-27T00:21:20.866Z,25.10
2023-03-27T00:21:50.884Z,25.10
2023-03-27T00:22:20.914Z,25.11
2023-03-27T00:22:50.926Z,25.11
2023-03-27T00:23:20.961Z,25.10
2023-03-27T00:23:50.980Z,25.10
2023-03-27T00:24:20.999Z,25.09
2023-03-27T00:24:51.107Z,25.09
2023-03-27T00:25:21.126Z,25.11
2023-03-27T00:25:51.149Z,25.11
2023-03-27T00:26:21.169Z,25.10
2023-03-27T00:26:51.192Z,25.09
2023-03-27T00:27:21.214Z,25.11
2023-03-27T00:27:51.251Z,25.09
2023-03-27T00:28:21.290Z,25.11
2023-03-27T00:28:51.298Z,25.11
2023-03-27T00:29:21.335Z,25.11
2023-03-27T00:29:51.357Z,25.11
2023-03-27T00:30:21.394Z,25.09
2023-03-27T00:30:51.453Z,25.10
2023-03-27T00:31:21.544Z,25.11
2023-03-27T00:31:51.614Z,25.09
2023-03-27T00:32:21.638Z,25.09
2023-03-27T00:32:51.664Z,25.10
2023-03-27T00:33:21.712Z,25.09
2023-03-27T00:33:51.874Z,25.10
2023-03-27T00:34:21.754Z,25.10
2023-03-27T00:35:21.783Z,25.09
2023-03-27T00:35:51.830Z,25.09
2023-03-27T00:36:21.872Z,25.09
2023-03-27T00:36:51.905Z,25.09
2023-03-27T00:37:21.960Z,25.09
2023-03-27T00:37:51.960Z,25.10
2023-03-27T00:38:21.973Z,25.10
2023-03-27T00:38:52.026Z,25.07
2023-03-27T00:39:22.043Z,25.09
2023-03-27T00:39:52.069Z,25.09
2023-03-27T00:40:22.082Z,25.11
2023-03-27T00:40:52.150Z,25.10
2023-03-27T00:41:22.232Z,25.07
2023-03-27T00:41:52.172Z,25.09
2023-03-27T00:42:22.205Z,25.10
2023-03-27T00:42:52.227Z,25.10
2023-03-27T00:43:22.246Z,25.09
2023-03-27T00:43:52.262Z,25.09
2023-03-27T00:44:22.285Z,25.09
2023-03-27T00:44:52.309Z,25.10
2023-03-27T00:45:22.369Z,25.09
2023-03-27T00:45:52.411Z,25.09
2023-03-27T00:46:22.448Z,25.09
2023-03-27T00:46:52.446Z,25.09
2023-03-27T00:47:22.475Z,25.11
2023-03-27T00:47:52.525Z,25.10
2023-03-27T00:48:22.565Z,25.10
2023-03-27T00:48:52.595Z,25.09
2023-03-27T00:49:22.704Z,25.13
2023-03-27T00:49:52.720Z,25.10
2023-03-27T00:50:22.755Z,25.10
2023-03-27T00:50:52.777Z,25.09
2023-03-27T00:51:22.804Z,25.09
2023-03-27T00:51:52.843Z,25.09
2023-03-27T00:52:22.853Z,25.11
2023-03-27T00:52:52.876Z,25.10
2023-03-27T00:53:22.901Z,25.11
2023-03-27T00:53:52.915Z,25.11
2023-03-27T00:54:22.940Z,25.10
2023-03-27T00:54:52.956Z,25.10
2023-03-27T00:55:23.062Z,25.09
2023-03-27T00:55:53.182Z,25.10
2023-03-27T00:56:23.291Z,25.10
2023-03-27T00:56:53.419Z,25.10
2023-03-27T00:57:23.423Z,25.10
2023-03-27T00:57:53.520Z,25.09
2023-03-27T00:58:23.632Z,25.13
2023-03-27T00:58:53.779Z,25.09
2023-03-27T00:59:23.771Z,25.07
2023-03-27T00:59:53.879Z,25.09
2023-03-27T01:00:23.984Z,25.09
2023-03-27T01:00:54.271Z,25.09
2023-03-27T01:01:24.165Z,25.07
2023-03-27T01:01:54.237Z,25.10
2023-03-27T01:02:24.242Z,25.09
2023-03-27T01:02:54.309Z,25.07
2023-03-27T01:03:24.367Z,25.10
2023-03-27T01:03:54.335Z,25.09
2023-03-27T01:04:24.344Z,25.09
2023-03-27T01:04:54.318Z,25.07
2023-03-27T01:05:54.447Z,25.09
2023-03-27T01:06:24.474Z,25.07
2023-03-27T01:06:54.491Z,25.09
2023-03-27T01:07:24.522Z,25.07
2023-03-27T01:08:01.288Z,25.07
2023-03-27T01:08:24.588Z,25.09
2023-03-27T01:08:54.588Z,25.06
2023-03-27T01:09:24.609Z,25.07
2023-03-27T01:09:54.629Z,25.06
2023-03-27T01:10:24.658Z,25.06
2023-03-27T01:10:55.024Z,25.09
2023-03-27T01:11:24.677Z,25.07
2023-03-27T01:11:54.700Z,25.10
2023-03-27T01:12:24.727Z,25.09
2023-03-27T01:12:54.744Z,25.07
2023-03-27T01:13:24.771Z,25.07
2023-03-27T01:13:54.808Z,25.07
2023-03-27T01:14:24.826Z,25.06
2023-03-27T01:14:54.854Z,25.06
2023-03-27T01:15:24.906Z,25.07
2023-03-27T01:15:54.948Z,25.07
2023-03-27T01:16:24.946Z,25.06
2023-03-27T01:16:54.966Z,25.07
2023-03-27T01:17:25.077Z,25.06
2023-03-27T01:17:55.045Z,25.06
2023-03-27T01:18:25.099Z,25.07
2023-03-27T01:18:55.118Z,25.05
2023-03-27T01:19:25.143Z,25.03
2023-03-27T01:19:55.196Z,25.06
2023-03-27T01:20:25.194Z,25.03
2023-03-27T01:20:55.509Z,25.05
2023-03-27T01:21:25.319Z,25.03
2023-03-27T01:21:55.341Z,25.06
2023-03-27T01:22:25.381Z,25.06
2023-03-27T01:22:55.389Z,25.05
2023-03-27T01:23:35.934Z,25.03
2023-03-27T01:23:59.559Z,25.06
2023-03-27T01:24:25.492Z,25.03
2023-03-27T01:24:55.514Z,25.05
2023-03-27T01:25:25.536Z,25.05
2023-03-27T01:25:55.574Z,25.05
2023-03-27T01:26:36.241Z,25.02
2023-03-27T01:26:55.639Z,25.03
2023-03-27T01:27:25.664Z,25.03
2023-03-27T01:27:55.677Z,25.05
2023-03-27T01:28:25.702Z,25.03
2023-03-27T01:28:55.722Z,25.05
2023-03-27T01:29:25.740Z,25.05
2023-03-27T01:29:55.769Z,25.05
2023-03-27T01:30:25.799Z,25.05
2023-03-27T01:30:56.035Z,25.02
2023-03-27T01:31:25.909Z,25.05
2023-03-27T01:31:55.941Z,25.05
2023-03-27T01:32:26.044Z,25.05
2023-03-27T01:32:56.028Z,25.00
2023-03-27T01:33:26.046Z,25.03
2023-03-27T01:33:56.062Z,25.06
2023-03-27T01:34:26.105Z,25.05
2023-03-27T01:35:01.502Z,25.05
2023-03-27T01:35:26.252Z,25.03
2023-03-27T01:35:56.288Z,25.02
2023-03-27T01:36:26.279Z,25.03
2023-03-27T01:36:56.309Z,25.02
2023-03-27T01:37:26.322Z,25.03
2023-03-27T01:37:56.360Z,25.02
2023-03-27T01:38:26.371Z,25.03
2023-03-27T01:38:56.395Z,25.05
2023-03-27T01:39:26.417Z,25.05
2023-03-27T01:39:56.436Z,25.05
2023-03-27T01:40:26.461Z,25.03
2023-03-27T01:40:56.682Z,25.05
2023-03-27T01:41:26.562Z,25.05
2023-03-27T01:41:56.563Z,25.03
2023-03-27T01:42:26.601Z,25.05
2023-03-27T01:42:56.621Z,25.05
2023-03-27T01:43:26.634Z,25.03
2023-03-27T01:43:56.665Z,25.02
2023-03-27T01:44:26.688Z,25.02
2023-03-27T01:44:56.730Z,25.02
2023-03-27T01:45:26.745Z,25.02
2023-03-27T01:45:56.765Z,25.03
2023-03-27T01:46:26.864Z,25.00
2023-03-27T01:46:56.958Z,25.03
2023-03-27T01:47:27.014Z,25.02
2023-03-27T01:47:57.055Z,25.02
2023-03-27T01:48:27.076Z,25.02
2023-03-27T01:48:57.099Z,25.02
2023-03-27T01:49:27.119Z,25.03
2023-03-27T01:49:57.141Z,25.03
2023-03-27T01:50:27.155Z,25.03
2023-03-27T01:50:57.421Z,25.03
2023-03-27T01:51:27.203Z,25.03
2023-03-27T01:51:57.243Z,25.00
2023-03-27T01:52:27.248Z,25.02
2023-03-27T01:52:57.270Z,25.03
2023-03-27T01:53:27.315Z,25.03
2023-03-27T01:53:57.327Z,25.00
2023-03-27T01:54:27.350Z,25.03
2023-03-27T01:54:57.360Z,25.02
2023-03-27T01:55:27.460Z,25.02
2023-03-27T01:55:57.551Z,25.02
2023-03-27T01:56:27.660Z,25.00
2023-03-27T01:56:57.737Z,25.00
2023-03-27T01:57:27.747Z,25.00
2023-03-27T01:57:57.857Z,25.00
2023-03-27T01:58:27.972Z,25.02
2023-03-27T01:58:58.073Z,25.03
2023-03-27T01:59:28.186Z,25.02
2023-03-27T01:59:58.297Z,25.02
2023-03-27T02:00:28.337Z,25.02
2023-03-27T02:00:58.338Z,25.00
2023-03-27T02:01:28.473Z,25.02
2023-03-27T02:01:58.444Z,25.00
2023-03-27T02:02:28.589Z,25.00
2023-03-27T02:02:58.597Z,25.02
2023-03-27T02:03:28.598Z,25.00
2023-03-27T02:03:58.704Z,25.02
2023-03-27T02:04:28.837Z,25.03
2023-03-27T02:04:58.984Z,24.99
2023-03-27T02:05:29.017Z,24.99
2023-03-27T02:05:59.050Z,25.02
2023-03-27T02:06:29.050Z,25.00
2023-03-27T02:06:59.086Z,25.02
2023-03-27T02:07:29.104Z,25.00
2023-03-27T02:07:59.142Z,25.00
2023-03-27T02:08:29.155Z,25.02
2023-03-27T02:08:59.166Z,25.02
2023-03-27T02:09:29.187Z,25.00
2023-03-27T02:09:59.214Z,25.00
2023-03-27T02:10:29.238Z,25.02
2023-03-27T02:10:59.413Z,24.99
2023-03-27T02:11:29.376Z,25.00
2023-03-27T02:11:59.425Z,25.00
2023-03-27T02:12:29.425Z,25.02
2023-03-27T02:12:59.461Z,24.99
2023-03-27T02:13:29.481Z,25.02
2023-03-27T02:13:59.516Z,25.00
2023-03-27T02:14:29.532Z,25.03
2023-03-27T02:15:24.839Z,24.99
2023-03-27T02:15:29.601Z,25.02
2023-03-27T02:15:59.665Z,25.00
2023-03-27T02:16:29.689Z,25.00
2023-03-27T02:16:59.708Z,25.00
2023-03-27T02:17:29.741Z,24.97
2023-03-27T02:17:59.795Z,25.00
2023-03-27T02:18:29.826Z,24.99
2023-03-27T02:18:59.856Z,24.99
2023-03-27T02:19:29.889Z,24.97
2023-03-27T02:19:59.913Z,25.00
2023-03-27T02:20:29.930Z,24.99
2023-03-27T02:20:59.951Z,25.00
2023-03-27T02:21:29.996Z,25.00
2023-03-27T02:21:59.997Z,24.99
2023-03-27T02:22:37.286Z,25.00
2023-03-27T02:23:00.068Z,24.99
2023-03-27T02:23:30.084Z,25.00
2023-03-27T02:24:00.109Z,24.99
2023-03-27T02:24:30.121Z,24.96
2023-03-27T02:25:00.163Z,24.99
2023-03-27T02:25:30.177Z,24.99
2023-03-27T02:26:00.205Z,24.99
2023-03-27T02:26:30.239Z,24.99
2023-03-27T02:27:00.274Z,24.99
2023-03-27T02:27:30.284Z,24.99
2023-03-27T02:28:00.320Z,24.99
2023-03-27T02:28:30.337Z,24.97
2023-03-27T02:29:00.450Z,24.96
2023-03-27T02:29:30.475Z,24.97
2023-03-27T02:30:00.503Z,24.99
2023-03-27T02:30:30.518Z,24.99
2023-03-27T02:31:05.685Z,24.96
2023-03-27T02:31:34.158Z,24.96
2023-03-27T02:32:01.112Z,24.95
2023-03-27T02:32:30.796Z,24.99
2023-03-27T02:33:00.862Z,24.97
2023-03-27T02:33:30.880Z,24.99
2023-03-27T02:34:00.901Z,25.00
2023-03-27T02:34:30.922Z,25.02
2023-03-27T02:35:00.950Z,25.00
2023-03-27T02:35:30.991Z,24.97
2023-03-27T02:36:01.053Z,25.00
2023-03-27T02:36:31.067Z,24.99
2023-03-27T02:37:01.124Z,24.99
2023-03-27T02:37:31.996Z,24.97
2023-03-27T02:38:01.188Z,24.99
2023-03-27T02:38:31.214Z,24.96
2023-03-27T02:39:01.235Z,24.99
2023-03-27T02:39:31.259Z,24.97
2023-03-27T02:40:01.281Z,24.99
2023-03-27T02:40:31.324Z,24.97
2023-03-27T02:41:01.341Z,24.99
2023-03-27T02:41:31.368Z,24.97
2023-03-27T02:42:01.411Z,24.99
2023-03-27T02:42:31.414Z,24.96
2023-03-27T02:43:01.442Z,24.97
2023-03-27T02:43:31.464Z,24.97
2023-03-27T02:44:01.485Z,25.00
2023-03-27T02:44:31.513Z,24.97
2023-03-27T02:45:01.544Z,24.97
2023-03-27T02:45:31.716Z,24.96
2023-03-27T02:46:01.747Z,24.97
2023-03-27T02:46:31.772Z,24.97
2023-03-27T02:47:01.822Z,25.00
2023-03-27T02:47:31.845Z,24.97
2023-03-27T02:48:01.928Z,24.99
2023-03-27T02:48:31.954Z,24.99
2023-03-27T02:49:01.982Z,24.99
2023-03-27T02:49:32.002Z,24.96
2023-03-27T02:50:02.057Z,24.99
2023-03-27T02:50:32.110Z,24.97
2023-03-27T02:51:02.115Z,24.96
2023-03-27T02:51:32.139Z,25.00
2023-03-27T02:52:02.175Z,24.96
2023-03-27T02:52:32.208Z,24.96
2023-03-27T02:53:02.209Z,24.97
2023-03-27T02:53:32.236Z,24.99
2023-03-27T02:54:02.256Z,24.97
2023-03-27T02:54:32.288Z,24.97
2023-03-27T02:55:02.278Z,24.96
2023-03-27T02:55:32.394Z,24.97
2023-03-27T02:56:02.502Z,24.97
2023-03-27T02:56:32.544Z,24.96
2023-03-27T02:57:02.628Z,24.96
2023-03-27T02:57:32.625Z,24.99
2023-03-27T02:58:02.614Z,24.96
2023-03-27T02:58:32.722Z,24.97
2023-03-27T02:59:02.735Z,24.97
2023-03-27T02:59:32.835Z,24.97
2023-03-27T03:00:02.835Z,24.96
2023-03-27T03:00:32.946Z,24.96
2023-03-27T03:01:03.069Z,24.97
2023-03-27T03:01:33.104Z,24.97
2023-03-27T03:02:03.259Z,24.97
2023-03-27T03:02:33.269Z,24.95
2023-03-27T03:03:03.443Z,24.95
2023-03-27T03:03:33.543Z,24.95
2023-03-27T03:04:03.563Z,24.95
2023-03-27T03:04:33.680Z,24.97
2023-03-27T03:05:03.684Z,24.95
2023-03-27T03:05:33.713Z,24.96
2023-03-27T03:06:03.730Z,24.95
2023-03-27T03:06:33.795Z,24.95
2023-03-27T03:07:03.829Z,24.95
2023-03-27T03:07:33.853Z,24.93
2023-03-27T03:08:03.908Z,24.91
2023-03-27T03:08:33.897Z,24.95
2023-03-27T03:09:03.921Z,24.95
2023-03-27T03:09:33.955Z,24.96
2023-03-27T03:10:03.992Z,24.93
2023-03-27T03:10:34.008Z,24.93
2023-03-27T03:11:04.040Z,24.95
2023-03-27T03:11:34.061Z,24.95
2023-03-27T03:12:04.123Z,24.95
2023-03-27T03:12:34.139Z,24.90
2023-03-27T03:13:04.195Z,24.91
2023-03-27T03:13:34.208Z,24.93
2023-03-27T03:14:04.243Z,24.93
2023-03-27T03:14:34.259Z,24.96
2023-03-27T03:15:04.281Z,24.91
2023-03-27T03:15:34.311Z,24.93
2023-03-27T03:16:04.366Z,24.93
2023-03-27T03:16:34.431Z,24.93
2023-03-27T03:17:04.438Z,24.93
2023-03-27T03:17:34.492Z,24.93
2023-03-27T03:18:04.551Z,24.95
2023-03-27T03:18:34.589Z,24.91
2023-03-27T03:19:04.613Z,24.91
2023-03-27T03:19:34.646Z,24.93
2023-03-27T03:20:04.662Z,24.95
2023-03-27T03:20:34.689Z,24.93
2023-03-27T03:21:04.716Z,24.95
2023-03-27T03:21:34.740Z,24.95
2023-03-27T03:22:04.773Z,24.96
2023-03-27T03:22:34.794Z,24.91
2023-03-27T03:23:04.818Z,24.96
2023-03-27T03:23:34.855Z,24.93
2023-03-27T03:24:04.886Z,24.96
2023-03-27T03:24:34.901Z,24.96
2023-03-27T03:25:04.917Z,24.93
2023-03-27T03:25:34.945Z,24.93
2023-03-27T03:26:04.967Z,24.93
2023-03-27T03:26:35.008Z,24.93
2023-03-27T03:27:05.027Z,24.95
2023-03-27T03:27:35.058Z,24.95
2023-03-27T03:28:05.075Z,24.95
2023-03-27T03:28:35.112Z,24.96
2023-03-27T03:29:05.132Z,24.91
2023-03-27T03:29:35.154Z,24.95
2023-03-27T03:30:05.169Z,24.95
2023-03-27T03:30:35.211Z,24.93
2023-03-27T03:31:05.246Z,24.95
2023-03-27T03:31:35.273Z,24.95
2023-03-27T03:32:05.296Z,24.93
2023-03-27T03:32:35.379Z,24.96
2023-03-27T03:33:05.415Z,24.97
2023-03-27T03:33:35.432Z,24.97
2023-03-27T03:34:05.453Z,24.99
2023-03-27T03:34:35.478Z,24.97
2023-03-27T03:35:05.501Z,25.00
2023-03-27T03:35:35.551Z,25.00
2023-03-27T03:36:05.591Z,24.99
2023-03-27T03:36:35.621Z,25.02
2023-03-27T03:37:05.645Z,25.00
2023-03-27T03:37:35.672Z,25.03
2023-03-27T03:38:05.700Z,25.05
2023-03-27T03:38:37.804Z,25.07
2023-03-27T03:39:05.815Z,25.06
2023-03-27T03:39:35.810Z,25.07
2023-03-27T03:40:05.834Z,25.09
2023-03-27T03:40:35.852Z,25.09
2023-03-27T03:41:05.873Z,25.09
2023-03-27T03:41:35.904Z,25.10
2023-03-27T03:42:05.930Z,25.11
2023-03-27T03:42:35.944Z,25.10
2023-03-27T03:43:05.971Z,25.11
2023-03-27T03:43:35.991Z,25.10
2023-03-27T03:44:06.046Z,25.17
2023-03-27T03:44:36.059Z,25.17
2023-03-27T03:45:06.084Z,25.17
2023-03-27T03:45:36.109Z,25.17
2023-03-27T03:46:06.139Z,25.19
2023-03-27T03:46:36.201Z,25.17
2023-03-27T03:47:06.168Z,25.13
2023-03-27T03:47:36.219Z,25.17
2023-03-27T03:48:06.268Z,25.19
2023-03-27T03:48:36.275Z,25.17
2023-03-27T03:49:06.297Z,25.21
2023-03-27T03:49:36.317Z,25.21
2023-03-27T03:50:06.352Z,25.20
2023-03-27T03:50:36.361Z,25.20
2023-03-27T03:51:06.444Z,25.23
2023-03-27T03:51:36.477Z,25.26
2023-03-27T03:52:06.488Z,25.27
2023-03-27T03:52:36.519Z,25.26
2023-03-27T03:53:06.534Z,25.21
2023-03-27T03:53:36.559Z,25.23
2023-03-27T03:54:06.590Z,25.21
2023-03-27T03:54:36.635Z,25.23
2023-03-27T03:55:06.607Z,25.30
2023-03-27T03:55:36.715Z,25.30
2023-03-27T03:56:06.835Z,25.31
2023-03-27T03:56:36.973Z,25.31
2023-03-27T03:57:07.012Z,25.36
2023-03-27T03:57:37.043Z,25.38
2023-03-27T03:58:07.024Z,25.38
2023-03-27T03:58:37.138Z,25.38
2023-03-27T03:59:07.244Z,25.44
2023-03-27T03:59:37.365Z,25.45
2023-03-27T04:00:07.479Z,25.48
2023-03-27T04:01:12.692Z,25.36
2023-03-27T04:01:42.830Z,25.41
2023-03-27T04:02:12.801Z,25.44
2023-03-27T04:02:42.974Z,25.41
2023-03-27T04:03:13.176Z,25.45
2023-03-27T04:03:43.035Z,25.48
2023-03-27T04:04:13.035Z,25.54
2023-03-27T04:04:44.285Z,25.55
2023-03-27T04:05:13.160Z,25.57
2023-03-27T04:05:43.245Z,25.61
2023-03-27T04:06:13.317Z,25.62
2023-03-27T04:06:43.391Z,25.65
2023-03-27T04:07:13.467Z,25.62
2023-03-27T04:07:43.558Z,25.64
2023-03-27T04:08:13.626Z,25.67
2023-03-27T04:08:43.705Z,25.67
2023-03-27T04:09:13.784Z,25.72
2023-03-27T04:09:43.872Z,25.69
2023-03-27T04:10:13.928Z,25.74
2023-03-27T04:10:44.001Z,25.75
2023-03-27T04:11:14.114Z,25.78
2023-03-27T04:11:44.224Z,25.78
2023-03-27T04:12:14.334Z,25.81
2023-03-27T04:12:44.345Z,25.82
2023-03-27T04:13:14.464Z,25.89
2023-03-27T04:13:44.568Z,25.88
2023-03-27T04:14:14.681Z,25.88
2023-03-27T04:14:44.792Z,25.92
2023-03-27T04:15:14.903Z,25.91
2023-03-27T04:15:45.062Z,25.95
2023-03-27T04:16:15.083Z,25.91
2023-03-27T04:16:45.112Z,25.91
2023-03-27T04:17:15.212Z,25.92
2023-03-27T04:17:45.406Z,25.93
2023-03-27T04:18:15.531Z,25.93
2023-03-27T04:18:45.505Z,25.92
2023-03-27T04:19:15.478Z,25.96
2023-03-27T04:19:45.591Z,25.97
2023-03-27T04:20:15.698Z,25.97
2023-03-27T04:20:45.820Z,25.96
2023-03-27T04:21:15.930Z,26.00
2023-03-27T04:21:46.038Z,26.00
2023-03-27T04:22:16.147Z,26.03
2023-03-27T04:22:46.302Z,26.03
2023-03-27T04:23:16.301Z,26.05
2023-03-27T04:23:46.407Z,26.03
2023-03-27T04:24:16.517Z,26.03
2023-03-27T04:24:46.654Z,26.06
2023-03-27T04:25:16.757Z,26.03
2023-03-27T04:25:46.932Z,26.06
2023-03-27T04:26:16.972Z,26.07
2023-03-27T04:26:46.971Z,26.09
2023-03-27T04:27:17.089Z,26.07
2023-03-27T04:27:47.214Z,26.10
2023-03-27T04:28:17.198Z,26.12
2023-03-27T04:28:47.323Z,26.06
2023-03-27T04:29:17.317Z,26.07
2023-03-27T04:29:47.531Z,26.07
2023-03-27T04:30:17.492Z,26.12
2023-03-27T04:30:47.601Z,26.10
2023-03-27T04:31:17.745Z,26.10
2023-03-27T04:31:47.735Z,26.10
2023-03-27T04:32:17.834Z,26.10
2023-03-27T04:32:47.974Z,26.13
2023-03-27T04:33:17.930Z,26.16
2023-03-27T04:33:48.044Z,26.16
2023-03-27T04:34:18.158Z,26.20
2023-03-27T04:34:48.306Z,26.19
2023-03-27T04:35:18.311Z,26.22
2023-03-27T04:36:06.084Z,26.23
2023-03-27T04:36:18.432Z,26.22
2023-03-27T04:36:48.401Z,26.27
2023-03-27T04:37:18.517Z,26.27
2023-03-27T04:37:48.575Z,26.27
2023-03-27T04:38:18.558Z,26.29
2023-03-27T04:38:48.661Z,26.32
2023-03-27T04:39:18.770Z,26.32
2023-03-27T04:39:48.887Z,26.33
2023-03-27T04:40:19.029Z,26.34
2023-03-27T04:40:49.170Z,26.37
2023-03-27T04:41:19.209Z,26.37
2023-03-27T04:41:49.332Z,26.39
2023-03-27T04:42:19.429Z,26.39
2023-03-27T04:42:49.599Z,26.40
2023-03-27T04:43:19.571Z,26.42
2023-03-27T04:43:49.668Z,26.43
2023-03-27T04:44:19.824Z,26.43
2023-03-27T04:44:50.150Z,26.44
2023-03-27T04:45:19.883Z,26.44
2023-03-27T04:46:20.110Z,26.43
2023-03-27T04:46:50.131Z,26.40
2023-03-27T04:47:20.112Z,26.40
2023-03-27T04:47:50.179Z,26.40
2023-03-27T04:48:20.164Z,26.43
2023-03-27T04:48:50.281Z,26.42
2023-03-27T04:49:20.540Z,26.46
2023-03-27T04:49:50.410Z,26.43
2023-03-27T04:50:20.520Z,26.47
2023-03-27T04:50:50.655Z,26.47
2023-03-27T04:51:20.754Z,26.44
2023-03-27T04:51:50.860Z,26.47
2023-03-27T04:52:20.976Z,26.43
2023-03-27T04:52:51.091Z,26.40
2023-03-27T04:53:21.203Z,26.42
2023-03-27T04:53:51.191Z,26.42
2023-03-27T04:54:21.299Z,26.42
2023-03-27T04:54:51.425Z,26.42
2023-03-27T04:55:21.411Z,26.46
2023-03-27T04:55:51.554Z,26.46
2023-03-27T04:56:21.640Z,26.46
2023-03-27T04:56:51.767Z,26.46
2023-03-27T04:57:21.885Z,26.47
2023-03-27T04:57:51.962Z,26.47
2023-03-27T04:58:22.067Z,26.46
2023-03-27T04:59:29.599Z,26.51
2023-03-27T04:59:59.756Z,26.47
2023-03-27T05:00:29.702Z,26.51
2023-03-27T05:01:00.058Z,26.51
2023-03-27T05:01:29.861Z,26.53
2023-03-27T05:01:59.865Z,26.53
2023-03-27T05:02:59.944Z,26.53
2023-03-27T05:03:29.927Z,26.54
2023-03-27T05:04:00.027Z,26.55
2023-03-27T05:04:30.050Z,26.58
2023-03-27T05:05:00.171Z,26.60
2023-03-27T05:05:30.165Z,26.58
2023-03-27T05:06:00.234Z,26.63
2023-03-27T05:06:30.303Z,26.61
2023-03-27T05:07:00.395Z,26.64
2023-03-27T05:07:30.456Z,26.64
2023-03-27T05:08:00.534Z,26.64
2023-03-27T05:08:30.612Z,26.68
2023-03-27T05:09:00.694Z,26.64
2023-03-27T05:09:30.803Z,26.67
2023-03-27T05:10:00.911Z,26.67
2023-03-27T05:10:31.034Z,26.68
2023-03-27T05:11:01.158Z,26.70
2023-03-27T05:11:31.267Z,26.71
2023-03-27T05:12:01.252Z,26.70
2023-03-27T05:12:31.364Z,26.73
2023-03-27T05:13:01.514Z,26.71
2023-03-27T05:13:31.486Z,26.71
2023-03-27T05:14:01.598Z,26.74
2023-03-27T05:14:31.737Z,26.74
2023-03-27T05:15:01.749Z,26.74
2023-03-27T05:15:31.859Z,26.74
2023-03-27T05:16:02.080Z,26.74
2023-03-27T05:16:32.082Z,26.73
2023-03-27T05:17:02.069Z,26.73
2023-03-27T05:17:32.189Z,26.77
2023-03-27T05:18:02.366Z,26.74
2023-03-27T05:18:32.390Z,26.74
2023-03-27T05:19:02.503Z,26.71
2023-03-27T05:19:32.610Z,26.70
2023-03-27T05:20:02.727Z,26.71
2023-03-27T05:20:32.739Z,26.71
2023-03-27T05:21:02.862Z,26.71
2023-03-27T05:21:32.914Z,26.71
2023-03-27T05:22:03.031Z,26.71
2023-03-27T05:22:33.140Z,26.71
2023-03-27T05:23:03.269Z,26.73
2023-03-27T05:23:33.269Z,26.74
2023-03-27T05:24:03.367Z,26.73
2023-03-27T05:24:33.360Z,26.74
2023-03-27T05:25:03.477Z,26.73
2023-03-27T05:25:33.468Z,26.77
2023-03-27T05:26:03.605Z,26.75
2023-03-27T05:26:33.678Z,26.77
2023-03-27T05:27:03.809Z,26.74
2023-03-27T05:27:33.904Z,26.74
2023-03-27T05:28:04.027Z,26.74
2023-03-27T05:28:34.022Z,26.73
2023-03-27T05:29:04.122Z,26.73
2023-03-27T05:29:47.349Z,26.74
2023-03-27T05:30:04.241Z,26.73
2023-03-27T05:30:34.371Z,26.71
2023-03-27T05:31:04.395Z,26.70
2023-03-27T05:31:34.476Z,26.68
2023-03-27T05:32:04.590Z,26.68
2023-03-27T05:32:34.728Z,26.70
2023-03-27T05:33:04.737Z,26.71
2023-03-27T05:33:34.725Z,26.70
2023-03-27T05:34:04.839Z,26.68
2023-03-27T05:34:34.954Z,26.68
2023-03-27T05:35:05.074Z,26.70
2023-03-27T05:35:35.190Z,26.73
2023-03-27T05:36:05.294Z,26.71
2023-03-27T05:36:35.414Z,26.70
2023-03-27T05:37:05.512Z,26.71
2023-03-27T05:37:35.620Z,26.71
2023-03-27T05:38:05.763Z,26.74
2023-03-27T05:38:35.744Z,26.75
2023-03-27T05:39:05.855Z,26.75
2023-03-27T05:39:35.958Z,26.75
2023-03-27T05:40:06.090Z,26.75
2023-03-27T05:40:36.194Z,26.75
2023-03-27T05:41:06.330Z,26.75
2023-03-27T05:41:36.416Z,26.77
2023-03-27T05:42:06.564Z,26.74
2023-03-27T05:42:36.559Z,26.74
2023-03-27T05:43:06.670Z,26.74
2023-03-27T05:43:36.789Z,26.75
2023-03-27T05:44:06.899Z,26.73
2023-03-27T05:44:36.893Z,26.73
2023-03-27T05:45:07.004Z,26.75
2023-03-27T05:45:37.125Z,26.73
2023-03-27T05:46:07.260Z,26.71
2023-03-27T05:46:37.289Z,26.70
2023-03-27T05:47:07.292Z,26.70
2023-03-27T05:47:37.442Z,26.70
2023-03-27T05:48:07.545Z,26.71
2023-03-27T05:48:37.502Z,26.70
2023-03-27T05:49:07.487Z,26.68
2023-03-27T05:49:37.596Z,26.68
2023-03-27T05:50:07.710Z,26.70
2023-03-27T05:50:37.703Z,26.67
2023-03-27T05:51:07.818Z,26.67
2023-03-27T05:51:37.928Z,26.67
2023-03-27T05:52:08.044Z,26.68
2023-03-27T05:52:38.154Z,26.67
2023-03-27T05:53:08.273Z,26.65
2023-03-27T05:53:38.388Z,26.68
2023-03-27T05:54:08.401Z,26.65
2023-03-27T05:54:38.484Z,26.64
2023-03-27T05:55:08.551Z,26.65
2023-03-27T05:55:38.673Z,26.67
2023-03-27T05:56:08.862Z,26.65
2023-03-27T05:56:38.870Z,26.67
2023-03-27T05:57:08.893Z,26.67
2023-03-27T05:57:38.878Z,26.67
2023-03-27T05:58:08.998Z,26.67
2023-03-27T05:58:39.109Z,26.65
2023-03-27T05:59:09.234Z,26.67
2023-03-27T05:59:39.288Z,26.67
2023-03-27T06:00:09.377Z,26.71
2023-03-27T06:00:39.447Z,26.70
2023-03-27T06:01:09.545Z,26.68
2023-03-27T06:01:39.613Z,26.70
2023-03-27T06:02:09.773Z,26.68
2023-03-27T06:02:39.829Z,26.71
2023-03-27T06:03:09.916Z,26.71
2023-03-27T06:03:39.873Z,26.70
2023-03-27T06:04:09.966Z,26.73
2023-03-27T06:04:39.963Z,26.73
2023-03-27T06:05:10.016Z,26.71
2023-03-27T06:05:40.098Z,26.74
2023-03-27T06:06:10.168Z,26.75
2023-03-27T06:06:40.238Z,26.77
2023-03-27T06:07:10.313Z,26.77
2023-03-27T06:07:42.548Z,26.77
2023-03-27T06:08:10.491Z,26.77
2023-03-27T06:08:40.617Z,26.75
2023-03-27T06:09:10.685Z,26.77
2023-03-27T06:09:40.676Z,26.78
2023-03-27T06:10:13.558Z,26.80
2023-03-27T06:10:40.828Z,26.78
2023-03-27T06:11:10.970Z,26.77
2023-03-27T06:11:41.082Z,26.80
2023-03-27T06:12:11.050Z,26.81
2023-03-27T06:12:41.168Z,26.81
2023-03-27T06:13:11.281Z,26.81
2023-03-27T06:13:41.391Z,26.81
2023-03-27T06:14:11.510Z,26.81
2023-03-27T06:14:41.622Z,26.80
2023-03-27T06:15:11.742Z,26.78
2023-03-27T06:15:41.890Z,26.80
2023-03-27T06:16:11.979Z,26.81
2023-03-27T06:16:41.997Z,26.80
2023-03-27T06:17:11.982Z,26.80
2023-03-27T06:17:42.130Z,26.75
2023-03-27T06:18:12.180Z,26.77
2023-03-27T06:18:42.184Z,26.74
2023-03-27T06:19:12.181Z,26.74
2023-03-27T06:19:42.320Z,26.77
2023-03-27T06:20:12.677Z,26.77
2023-03-27T06:20:42.467Z,26.75
2023-03-27T06:21:12.579Z,26.77
2023-03-27T06:21:42.694Z,26.77
2023-03-27T06:22:12.805Z,26.80
2023-03-27T06:22:42.920Z,26.78
2023-03-27T06:23:13.041Z,26.80
2023-03-27T06:23:43.040Z,26.80
2023-03-27T06:24:13.166Z,26.81
2023-03-27T06:24:43.277Z,26.80
2023-03-27T06:25:13.388Z,26.82
2023-03-27T06:25:43.567Z,26.82
2023-03-27T06:26:13.613Z,26.81
2023-03-27T06:26:43.624Z,26.82
2023-03-27T06:27:13.699Z,26.84
2023-03-27T06:27:43.817Z,26.84
2023-03-27T06:28:13.922Z,26.85
2023-03-27T06:28:44.034Z,26.81
2023-03-27T06:29:14.156Z,26.81
2023-03-27T06:29:44.266Z,26.81
2023-03-27T06:30:14.392Z,26.80